createdAt,value
2023-01-17T00:02:06.288Z,1.25
2023-01-17T00:04:56.393Z,1.15
2023-01-17T00:07:56.728Z,1.20
2023-01-17T00:10:25.502Z,1.10
2023-01-17T00:12:53.326Z,1.15
2023-01-17T00:15:22.909Z,0.85
2023-01-17T00:17:50.139Z,1.05
2023-01-17T00:20:37.649Z,0.70
2023-01-17T00:23:41.400Z,0.70
2023-01-17T00:26:16.819Z,0.70
2023-01-17T00:28:44.010Z,0.70
2023-01-17T00:31:12.261Z,0.70
2023-01-17T00:33:38.769Z,0.80
2023-01-17T00:36:06.223Z,0.60
2023-01-17T00:38:35.671Z,0.80
2023-01-17T00:41:13.786Z,1.15
2023-01-17T00:43:58.808Z,0.90
2023-01-17T00:46:44.564Z,0.80
2023-01-17T00:49:29.642Z,0.82
2023-01-17T00:52:14.882Z,0.70
2023-01-17T00:54:59.833Z,0.82
2023-01-17T00:57:45.098Z,0.90
2023-01-17T01:00:30.959Z,0.90
2023-01-17T01:03:15.748Z,0.80
2023-01-17T01:06:01.172Z,0.60
2023-01-17T01:08:48.212Z,0.73
2023-01-17T01:11:36.140Z,0.70
2023-01-17T01:14:21.610Z,0.70
2023-01-17T01:17:06.683Z,0.70
2023-01-17T01:19:52.075Z,1.02
2023-01-17T01:22:37.706Z,0.85
2023-01-17T01:25:23.437Z,0.98
2023-01-17T01:28:08.187Z,1.00
2023-01-17T01:30:53.170Z,0.60
2023-01-17T01:33:19.682Z,1.00
2023-01-17T01:35:51.204Z,0.90
2023-01-17T01:38:20.004Z,1.10
2023-01-17T01:40:49.625Z,0.87
2023-01-17T01:43:19.900Z,0.90
2023-01-17T01:45:53.108Z,1.02
2023-01-17T01:48:40.798Z,1.00
2023-01-17T01:51:16.141Z,0.90
2023-01-17T01:53:47.839Z,0.80
2023-01-17T01:56:15.683Z,0.90
2023-01-17T01:58:45.782Z,0.55
2023-01-17T02:01:13.402Z,0.90
2023-01-17T02:03:41.795Z,0.80
2023-01-17T02:06:38.830Z,0.80
2023-01-17T02:09:11.722Z,1.30
2023-01-17T02:11:40.072Z,0.70
2023-01-17T02:14:06.746Z,0.77
2023-01-17T02:16:51.390Z,1.40
2023-01-17T02:20:00.794Z,0.97
2023-01-17T02:22:48.286Z,0.95
2023-01-17T02:25:55.729Z,0.95
2023-01-17T02:28:44.025Z,1.50
2023-01-17T02:31:19.269Z,1.48
2023-01-17T02:34:02.956Z,1.97
2023-01-17T02:36:34.958Z,1.17
2023-01-17T02:39:09.940Z,1.40
2023-01-17T02:41:40.749Z,1.75
2023-01-17T02:44:15.398Z,1.50
2023-01-17T02:46:51.213Z,1.47
2023-01-17T02:49:21.710Z,1.33
2023-01-17T02:52:20.475Z,1.13
2023-01-17T02:54:50.017Z,1.60
2023-01-17T02:57:28.777Z,1.25
2023-01-17T03:00:30.376Z,1.37
2023-01-17T03:03:17.977Z,1.00
2023-01-17T03:05:57.114Z,1.38
2023-01-17T03:08:24.541Z,1.17
2023-01-17T03:10:51.220Z,1.23
2023-01-17T03:13:18.061Z,1.70
2023-01-17T03:15:45.332Z,1.45
2023-01-17T03:18:15.105Z,1.50
2023-01-17T03:20:42.076Z,1.52
2023-01-17T03:23:08.875Z,1.10
2023-01-17T03:25:35.611Z,1.20
2023-01-17T03:28:02.267Z,1.23
2023-01-17T03:30:28.742Z,1.17
2023-01-17T03:32:55.270Z,1.60
2023-01-17T03:35:21.816Z,1.50
2023-01-17T03:37:48.376Z,1.57
2023-01-17T03:40:15.203Z,1.63
2023-01-17T03:42:42.119Z,1.67
2023-01-17T03:45:09.208Z,1.15
2023-01-17T03:47:36.470Z,1.33
2023-01-17T03:50:03.636Z,1.40
2023-01-17T03:52:30.473Z,1.10
2023-01-17T03:54:57.113Z,0.90
2023-01-17T03:57:23.634Z,1.20
2023-01-17T03:59:50.175Z,1.00
2023-01-17T04:02:16.745Z,1.00
2023-01-17T04:04:43.221Z,1.00
2023-01-17T04:07:09.953Z,0.85
2023-01-17T04:09:36.498Z,1.20
2023-01-17T04:12:03.783Z,0.95
2023-01-17T04:14:30.301Z,1.03
2023-01-17T04:16:57.363Z,0.77
2023-01-17T04:19:23.927Z,1.50
2023-01-17T04:21:50.435Z,1.05
2023-01-17T04:24:18.030Z,1.00
2023-01-17T04:26:44.906Z,1.10
2023-01-17T04:29:11.480Z,1.05
2023-01-17T04:31:38.087Z,1.27
2023-01-17T04:34:04.592Z,0.90
2023-01-17T04:36:31.123Z,1.40
2023-01-17T04:38:57.595Z,0.90
2023-01-17T04:41:24.141Z,1.90
2023-01-17T04:43:50.602Z,1.35
2023-01-17T04:46:17.425Z,1.50
2023-01-17T04:48:43.922Z,1.30
2023-01-17T04:51:10.423Z,1.13
2023-01-17T04:53:37.000Z,1.17
2023-01-17T04:56:04.040Z,1.20
2023-01-17T04:58:31.367Z,1.27
2023-01-17T05:01:02.205Z,1.25
2023-01-17T05:03:29.931Z,0.90
2023-01-17T05:05:56.708Z,1.27
2023-01-17T05:08:23.264Z,1.00
2023-01-17T05:10:49.783Z,1.35
2023-01-17T05:13:17.462Z,1.50
2023-01-17T05:15:44.368Z,1.67
2023-01-17T05:18:13.163Z,1.55
2023-01-17T05:20:39.618Z,1.23
2023-01-17T05:23:06.173Z,1.48
2023-01-17T05:25:33.653Z,1.65
2023-01-17T05:28:00.671Z,1.40
2023-01-17T05:30:28.982Z,1.50
2023-01-17T05:32:56.953Z,1.85
2023-01-17T05:35:26.452Z,1.83
2023-01-17T05:37:53.059Z,1.65
2023-01-17T05:40:22.143Z,1.50
2023-01-17T05:42:50.332Z,1.73
2023-01-17T05:45:18.462Z,2.55
2023-01-17T05:47:46.153Z,1.67
2023-01-17T05:50:16.500Z,2.00
2023-01-17T05:52:53.583Z,2.10
2023-01-17T05:55:21.291Z,2.10
2023-01-17T05:57:47.919Z,2.45
2023-01-17T06:00:14.743Z,2.42
2023-01-17T06:02:41.479Z,2.08
2023-01-17T06:05:08.230Z,2.30
2023-01-17T06:07:34.820Z,2.20
2023-01-17T06:10:01.325Z,3.20
2023-01-17T06:12:27.864Z,3.30
2023-01-17T06:14:54.367Z,2.75
2023-01-17T06:17:20.945Z,2.40
2023-01-17T06:19:47.449Z,2.92
2023-01-17T06:22:13.964Z,2.90
2023-01-17T06:24:40.469Z,3.30
2023-01-17T06:27:09.744Z,3.20
2023-01-17T06:29:37.076Z,2.70
2023-01-17T06:32:04.127Z,3.15
2023-01-17T06:34:30.688Z,2.60
2023-01-17T06:36:57.755Z,2.63
2023-01-17T06:39:24.276Z,3.22
2023-01-17T06:41:50.920Z,3.00
2023-01-17T06:44:17.595Z,3.03
2023-01-17T06:46:45.084Z,3.70
2023-01-17T06:49:11.636Z,3.33
2023-01-17T06:51:38.141Z,3.50
2023-01-17T06:54:04.880Z,2.63
2023-01-17T06:56:32.687Z,2.92
2023-01-17T06:58:59.378Z,3.00
2023-01-17T07:01:26.210Z,4.32
2023-01-17T07:03:52.936Z,3.00
2023-01-17T07:06:20.610Z,3.67
2023-01-17T07:08:49.803Z,3.67
2023-01-17T07:11:16.341Z,3.50
2023-01-17T07:13:42.908Z,4.05
2023-01-17T07:16:09.530Z,3.20
2023-01-17T07:18:36.088Z,4.40
2023-01-17T07:21:02.528Z,3.40
2023-01-17T07:23:29.022Z,3.85
2023-01-17T07:25:57.605Z,2.90
2023-01-17T07:28:25.682Z,3.80
2023-01-17T07:30:52.384Z,3.67
2023-01-17T07:33:19.202Z,4.28
2023-01-17T07:35:46.384Z,4.03
2023-01-17T07:38:15.925Z,4.05
2023-01-17T07:40:42.738Z,4.90
2023-01-17T07:43:16.623Z,3.90
2023-01-17T07:45:50.611Z,3.80
2023-01-17T07:48:18.839Z,3.70
2023-01-17T07:50:45.641Z,3.80
2023-01-17T07:53:12.141Z,4.57
2023-01-17T07:55:38.807Z,2.90
2023-01-17T07:58:05.332Z,4.55
2023-01-17T08:00:31.857Z,5.35
2023-01-17T08:02:59.468Z,5.15
2023-01-17T08:05:26.073Z,4.78
2023-01-17T08:07:52.735Z,5.17
2023-01-17T08:10:19.531Z,4.80
2023-01-17T08:12:47.954Z,4.90
2023-01-17T08:15:16.663Z,4.55
2023-01-17T08:17:47.457Z,4.18
2023-01-17T08:20:14.663Z,4.80
2023-01-17T08:22:41.313Z,4.97
2023-01-17T08:25:08.380Z,5.40
2023-01-17T08:27:36.220Z,5.22
2023-01-17T08:30:03.930Z,4.85
2023-01-17T08:32:30.531Z,4.43
2023-01-17T08:34:57.280Z,5.47
2023-01-17T08:37:24.486Z,3.95
2023-01-17T08:39:51.212Z,5.30
2023-01-17T08:42:18.036Z,4.55
2023-01-17T08:44:44.615Z,5.20
2023-01-17T08:47:11.240Z,6.15
2023-01-17T08:49:37.816Z,4.63
2023-01-17T08:52:05.305Z,4.05
2023-01-17T08:54:33.021Z,4.30
2023-01-17T08:56:59.824Z,5.10
2023-01-17T08:59:28.782Z,4.88
2023-01-17T09:01:58.229Z,5.35
2023-01-17T09:04:25.017Z,5.15
2023-01-17T09:06:54.678Z,5.38
2023-01-17T09:09:21.404Z,5.47
2023-01-17T09:11:49.893Z,5.45
2023-01-17T09:14:18.037Z,4.43
2023-01-17T09:16:44.611Z,4.82
2023-01-17T09:19:11.272Z,5.40
2023-01-17T09:21:37.824Z,6.27
2023-01-17T09:24:04.798Z,5.55
2023-01-17T09:26:32.128Z,6.22
2023-01-17T09:29:01.249Z,6.50
2023-01-17T09:31:27.882Z,6.90
2023-01-17T09:33:58.530Z,6.43
2023-01-17T09:36:28.898Z,6.90
2023-01-17T09:38:57.866Z,7.65
2023-01-17T09:41:33.354Z,8.82
2023-01-17T09:44:35.319Z,7.65
2023-01-17T09:47:16.716Z,7.40
2023-01-17T09:49:47.381Z,7.60
2023-01-17T09:52:17.815Z,7.22
2023-01-17T09:54:46.827Z,6.97
2023-01-17T09:57:37.003Z,7.43
2023-01-17T10:00:09.238Z,6.53
2023-01-17T10:02:54.820Z,6.63
2023-01-17T10:05:33.947Z,6.50
2023-01-17T10:08:14.902Z,6.22
2023-01-17T10:11:07.520Z,7.40
2023-01-17T10:13:52.369Z,5.97
2023-01-17T10:16:47.985Z,5.53
2023-01-17T10:19:36.716Z,6.25
2023-01-17T10:22:31.043Z,5.30
2023-01-17T10:25:19.156Z,5.55
2023-01-17T10:28:17.001Z,5.17
2023-01-17T10:30:49.871Z,5.40
2023-01-17T10:33:24.415Z,4.40
2023-01-17T10:36:03.823Z,4.18
2023-01-17T10:38:36.601Z,4.00
2023-01-17T10:41:18.855Z,3.63
2023-01-17T10:43:51.215Z,3.90
2023-01-17T10:46:25.324Z,3.15
2023-01-17T10:48:52.834Z,2.30
2023-01-17T10:52:08.728Z,2.47
2023-01-17T10:55:10.732Z,2.17
2023-01-17T10:57:46.171Z,2.00
2023-01-17T11:00:31.181Z,2.80
2023-01-17T11:03:00.249Z,2.03
2023-01-17T11:05:29.491Z,3.10
2023-01-17T11:08:01.508Z,2.83
2023-01-17T11:10:49.079Z,4.35
2023-01-17T11:13:28.088Z,2.65
2023-01-17T11:15:59.566Z,3.03
2023-01-17T11:18:33.544Z,2.90
2023-01-17T11:21:14.932Z,3.10
2023-01-17T11:23:44.697Z,3.53
2023-01-17T11:26:22.267Z,3.10
2023-01-17T11:28:48.914Z,3.70
2023-01-17T11:31:16.555Z,3.70
2023-01-17T11:33:54.043Z,3.13
2023-01-17T11:36:24.609Z,3.67
2023-01-17T11:39:05.461Z,2.88
2023-01-17T11:41:40.372Z,3.45
2023-01-17T11:44:22.465Z,3.08
2023-01-17T11:46:50.052Z,2.88
2023-01-17T11:49:27.430Z,3.22
2023-01-17T11:51:57.073Z,3.17
2023-01-17T11:54:38.963Z,3.00
2023-01-17T11:57:07.513Z,2.72
2023-01-17T11:59:42.518Z,1.98
2023-01-17T12:02:33.376Z,2.88
2023-01-17T12:05:37.633Z,1.80
2023-01-17T12:08:04.341Z,2.60
2023-01-17T12:10:38.299Z,2.35
2023-01-17T12:13:29.676Z,2.00
2023-01-17T12:16:32.022Z,2.05
2023-01-17T12:19:21.661Z,2.20
2023-01-17T12:22:08.489Z,2.17
2023-01-17T12:24:59.995Z,2.05
2023-01-17T12:27:34.564Z,2.20
2023-01-17T12:30:21.808Z,1.70
2023-01-17T12:33:07.151Z,1.77
2023-01-17T12:35:44.042Z,1.95
2023-01-17T12:38:32.200Z,1.77
2023-01-17T12:41:18.857Z,1.98
2023-01-17T12:43:54.901Z,2.00
2023-01-17T12:46:43.194Z,1.48
2023-01-17T12:49:28.689Z,1.40
2023-01-17T12:52:03.467Z,1.40
2023-01-17T12:54:39.166Z,1.67
2023-01-17T12:57:17.665Z,1.58
2023-01-17T13:00:05.477Z,1.88
2023-01-17T13:02:45.922Z,1.42
2023-01-17T13:05:32.419Z,1.60
2023-01-17T13:08:13.120Z,1.85
2023-01-17T13:10:44.595Z,1.48
2023-01-17T13:13:32.595Z,1.75
2023-01-17T13:16:13.625Z,1.63
2023-01-17T13:18:46.602Z,2.10
2023-01-17T13:21:34.024Z,1.95
2023-01-17T13:24:20.672Z,1.90
2023-01-17T13:26:56.256Z,2.20
2023-01-17T13:30:20.015Z,1.80
2023-01-17T13:33:02.215Z,1.45
2023-01-17T13:35:44.329Z,2.35
2023-01-17T13:38:30.550Z,1.58
2023-01-17T13:41:01.417Z,2.50
2023-01-17T13:43:37.772Z,1.70
2023-01-17T13:46:04.488Z,1.90
2023-01-17T13:48:33.385Z,1.77
2023-01-17T13:51:05.061Z,1.80
2023-01-17T13:53:34.392Z,2.10
2023-01-17T13:56:14.959Z,2.00
2023-01-17T13:58:50.118Z,2.10
2023-01-17T14:01:22.934Z,1.87
2023-01-17T14:03:49.777Z,2.17
2023-01-17T14:06:35.537Z,2.20
2023-01-17T14:09:03.741Z,2.03
2023-01-17T14:11:37.606Z,2.05
2023-01-17T14:14:43.993Z,1.83
2023-01-17T14:17:29.936Z,1.58
2023-01-17T14:20:27.326Z,1.60
2023-01-17T14:23:23.028Z,1.98
2023-01-17T14:25:51.673Z,1.90
2023-01-17T14:28:31.679Z,1.70
2023-01-17T14:31:00.894Z,1.67
2023-01-17T14:33:37.218Z,2.08
2023-01-17T14:36:14.393Z,2.10
2023-01-17T14:38:42.519Z,1.95
2023-01-17T14:41:19.009Z,1.98
2023-01-17T14:43:48.408Z,2.00
2023-01-17T14:46:24.009Z,1.92
2023-01-17T14:49:00.044Z,1.90
2023-01-17T14:51:28.505Z,1.90
2023-01-17T14:53:56.899Z,2.28
2023-01-17T14:56:25.731Z,1.55
2023-01-17T14:59:17.182Z,1.83
2023-01-17T15:02:06.298Z,1.70
2023-01-17T15:04:41.634Z,1.80
2023-01-17T15:07:16.324Z,1.75
2023-01-17T15:09:44.720Z,1.98
2023-01-17T15:12:16.466Z,1.70
2023-01-17T15:14:46.387Z,1.80
2023-01-17T15:17:19.883Z,1.75
2023-01-17T15:19:55.763Z,1.70
2023-01-17T15:22:23.700Z,2.45
2023-01-17T15:24:50.666Z,1.95
2023-01-17T15:27:17.672Z,1.98
2023-01-17T15:29:45.779Z,1.92
2023-01-17T15:32:22.554Z,1.50
2023-01-17T15:34:51.053Z,1.77
2023-01-17T15:37:29.874Z,1.58
2023-01-17T15:40:15.940Z,2.17
2023-01-17T15:42:44.395Z,1.75
2023-01-17T15:45:16.220Z,1.50
2023-01-17T15:47:42.987Z,1.80
2023-01-17T15:50:23.618Z,1.85
2023-01-17T15:52:52.644Z,1.52
2023-01-17T15:55:23.150Z,1.65
2023-01-17T15:57:50.233Z,1.70
2023-01-17T16:00:26.509Z,1.50
2023-01-17T16:02:58.728Z,1.55
2023-01-17T16:05:27.704Z,1.40
2023-01-17T16:08:18.157Z,1.92
2023-01-17T16:10:44.972Z,1.80
2023-01-17T16:13:13.798Z,1.90
2023-01-17T16:15:41.843Z,1.80
2023-01-17T16:18:18.368Z,1.67
2023-01-17T16:20:49.875Z,2.38
2023-01-17T16:23:17.215Z,1.53
2023-01-17T16:25:44.552Z,2.42
2023-01-17T16:28:11.172Z,2.10
2023-01-17T16:30:37.844Z,2.50
2023-01-17T16:33:05.033Z,3.38
2023-01-17T16:35:33.710Z,2.80
2023-01-17T16:38:04.455Z,2.40
2023-01-17T16:40:33.759Z,1.88
2023-01-17T16:43:01.000Z,2.08
2023-01-17T16:45:27.619Z,2.13
2023-01-17T16:47:54.607Z,2.10
2023-01-17T16:50:24.340Z,2.20
2023-01-17T16:52:54.799Z,2.72
2023-01-17T16:55:23.727Z,4.00
2023-01-17T16:57:51.972Z,2.95
2023-01-17T17:00:18.988Z,3.47
2023-01-17T17:02:49.993Z,5.00
2023-01-17T17:05:16.611Z,3.75
2023-01-17T17:07:45.515Z,4.47
2023-01-17T17:10:14.841Z,3.47
2023-01-17T17:12:41.924Z,4.20
2023-01-17T17:15:09.834Z,3.58
2023-01-17T17:17:43.575Z,4.07
2023-01-17T17:20:14.812Z,7.20
2023-01-17T17:22:45.656Z,4.00
2023-01-17T17:25:12.433Z,1.63
2023-01-17T17:27:39.187Z,3.15
2023-01-17T17:30:06.380Z,3.58
2023-01-17T17:32:33.019Z,3.25
2023-01-17T17:34:59.621Z,1.85
2023-01-17T17:37:29.003Z,2.13
2023-01-17T17:39:56.871Z,15.30
2023-01-17T17:42:23.613Z,12.00
2023-01-17T17:44:50.172Z,5.68
2023-01-17T17:47:16.743Z,5.50
2023-01-17T17:49:43.524Z,3.63
2023-01-17T17:52:10.316Z,3.47
2023-01-17T17:54:36.911Z,6.82
2023-01-17T17:57:03.506Z,9.73
2023-01-17T17:59:31.188Z,6.90
2023-01-17T18:01:59.669Z,4.30
2023-01-17T18:04:26.422Z,4.05
2023-01-17T18:06:56.690Z,5.30
2023-01-17T18:09:23.192Z,10.45
2023-01-17T18:11:49.804Z,11.65
2023-01-17T18:14:17.720Z,8.20
2023-01-17T18:16:46.082Z,7.45
2023-01-17T18:19:15.919Z,11.23
2023-01-17T18:21:43.086Z,12.32
2023-01-17T18:24:13.759Z,12.63
2023-01-17T18:26:53.393Z,7.10
2023-01-17T18:29:21.370Z,5.68
2023-01-17T18:31:52.584Z,4.47
2023-01-17T18:34:24.334Z,6.47
2023-01-17T18:36:51.886Z,6.28
2023-01-17T18:39:25.739Z,6.60
2023-01-17T18:41:53.934Z,4.63
2023-01-17T18:44:22.379Z,3.63
2023-01-17T18:46:50.371Z,2.97
2023-01-17T18:49:19.286Z,3.83
2023-01-17T18:51:51.142Z,3.60
2023-01-17T18:54:21.762Z,33.75
2023-01-17T18:56:48.583Z,42.95
2023-01-17T18:59:18.284Z,9.45
2023-01-17T19:01:45.450Z,7.20
2023-01-17T19:04:13.672Z,4.10
2023-01-17T19:06:42.942Z,5.00
2023-01-17T19:09:12.370Z,5.15
2023-01-17T19:11:40.458Z,4.03
2023-01-17T19:14:07.146Z,4.15
2023-01-17T19:16:39.218Z,4.50
2023-01-17T19:19:09.349Z,4.38
2023-01-17T19:21:36.526Z,5.07
2023-01-17T19:24:03.588Z,4.70
2023-01-17T19:26:30.480Z,5.07
2023-01-17T19:29:03.889Z,4.57
2023-01-17T19:31:32.168Z,4.00
2023-01-17T19:34:02.603Z,7.40
2023-01-17T19:36:34.397Z,7.53
2023-01-17T19:39:06.845Z,6.93
2023-01-17T19:41:35.816Z,7.63
2023-01-17T19:44:06.638Z,7.32
2023-01-17T19:46:34.232Z,6.90
2023-01-17T19:49:01.439Z,6.47
2023-01-17T19:51:28.377Z,6.70
2023-01-17T19:53:55.283Z,7.40
2023-01-17T19:56:24.239Z,6.70
2023-01-17T19:58:52.256Z,5.18
2023-01-17T20:01:21.896Z,5.65
2023-01-17T20:03:51.712Z,5.90
2023-01-17T20:06:21.257Z,5.63
2023-01-17T20:08:47.926Z,4.75
2023-01-17T20:11:18.658Z,4.47
2023-01-17T20:13:46.291Z,5.13
2023-01-17T20:16:15.176Z,4.95
2023-01-17T20:18:42.076Z,5.43
2023-01-17T20:21:17.837Z,6.10
2023-01-17T20:23:46.978Z,7.47
2023-01-17T20:26:17.112Z,7.25
2023-01-17T20:28:48.368Z,6.63
2023-01-17T20:31:16.985Z,6.43
2023-01-17T20:33:45.350Z,7.00
2023-01-17T20:36:14.972Z,5.65
2023-01-17T20:38:45.717Z,5.05
2023-01-17T20:41:19.340Z,4.43
2023-01-17T20:43:48.649Z,4.00
2023-01-17T20:46:16.086Z,4.15
2023-01-17T20:48:51.027Z,4.10
2023-01-17T20:51:18.879Z,4.03
2023-01-17T20:53:46.881Z,3.75
2023-01-17T20:56:15.324Z,4.70
2023-01-17T20:58:42.673Z,4.10
2023-01-17T21:01:11.158Z,5.35
2023-01-17T21:03:38.778Z,10.15
2023-01-17T21:06:10.455Z,16.17
2023-01-17T21:08:39.043Z,13.43
2023-01-17T21:11:07.601Z,6.43
2023-01-17T21:13:34.763Z,6.07
2023-01-17T21:16:01.323Z,6.68
2023-01-17T21:18:31.598Z,6.03
2023-01-17T21:21:07.345Z,5.93
2023-01-17T21:23:38.622Z,5.85
2023-01-17T21:26:06.333Z,6.53
2023-01-17T21:28:35.035Z,5.45
2023-01-17T21:31:06.942Z,6.13
2023-01-17T21:33:33.457Z,6.60
2023-01-17T21:36:08.477Z,5.35
2023-01-17T21:38:34.997Z,5.82
2023-01-17T21:41:02.409Z,5.72
2023-01-17T21:43:29.069Z,9.73
2023-01-17T21:45:55.678Z,10.03
2023-01-17T21:48:23.077Z,6.32
2023-01-17T21:50:52.518Z,6.30
2023-01-17T21:53:19.034Z,7.75
2023-01-17T21:56:03.939Z,10.80
2023-01-17T21:58:45.393Z,14.07
2023-01-17T22:01:21.522Z,15.07
2023-01-17T22:03:49.374Z,9.73
2023-01-17T22:06:16.077Z,7.18
2023-01-17T22:08:42.663Z,7.20
2023-01-17T22:11:12.407Z,8.33
2023-01-17T22:13:40.579Z,11.90
2023-01-17T22:16:10.525Z,12.18
2023-01-17T22:18:39.072Z,10.52
2023-01-17T22:21:12.121Z,6.53
2023-01-17T22:23:39.498Z,6.03
2023-01-17T22:26:09.624Z,6.78
2023-01-17T22:28:36.917Z,6.57
2023-01-17T22:31:12.906Z,6.47
2023-01-17T22:33:41.601Z,6.50
2023-01-17T22:36:09.375Z,6.67
2023-01-17T22:38:36.533Z,6.65
2023-01-17T22:41:08.574Z,6.30
2023-01-17T22:43:37.322Z,5.97
2023-01-17T22:46:06.051Z,5.65
2023-01-17T22:48:36.979Z,7.03
2023-01-17T22:51:05.115Z,6.45
2023-01-17T22:53:31.768Z,6.40
2023-01-17T22:56:06.878Z,5.65
2023-01-17T22:58:34.427Z,6.53
2023-01-17T23:01:10.791Z,6.43
2023-01-17T23:03:38.021Z,6.65
2023-01-17T23:06:13.439Z,7.82
2023-01-17T23:08:42.121Z,6.18
2023-01-17T23:11:39.732Z,6.70
2023-01-17T23:14:11.596Z,5.77
2023-01-17T23:17:04.490Z,6.63
2023-01-17T23:19:35.291Z,6.20
2023-01-17T23:22:20.366Z,5.60
2023-01-17T23:24:52.610Z,5.55
2023-01-17T23:27:43.652Z,6.13
2023-01-17T23:30:15.868Z,5.57
2023-01-17T23:32:50.874Z,5.72
2023-01-17T23:35:19.361Z,6.57
2023-01-17T23:38:04.868Z,6.63
2023-01-17T23:40:32.892Z,6.20
2023-01-17T23:43:18.043Z,7.07
2023-01-17T23:45:44.821Z,6.97
2023-01-17T23:48:11.348Z,5.50
2023-01-17T23:50:44.153Z,6.10
2023-01-17T23:53:11.994Z,5.57
2023-01-17T23:55:40.967Z,6.55
2023-01-17T23:58:09.859Z,5.93
